Hayden, CO (81639)

07:13 AM MDT am 31. August 2015 (GMT -0600)
Craig-Moffat | | Change Station
CLOSE
Current Station
Flughafen
Location: Craig,
Höhe: 6191 ft
Wetterstationen in der Umgebung

Höhe 6191 ft 40.49 °N, 107.52 °W | Updated 1 hour ago

Teils Wolkig
Teils Wolkig
59 °F
gefühlte 59 °F
N
0
Wind Wechselnd Wind aus Nord

Heute
Max. -- | schwach -- °F
--% Regenrisiko
Gestern
Max. -- | schwach -- °F
Precip. -- inch
6:35 AM 7:42 PM
Drittes Viertel, 95% visible
Druck 30.01 inch
Sichtweite 10.0 Meilen
Wolken Heiter
Taupunkt 49 °F
Feuchtigkeit 69%
Regen 0.00 inch
Schneehöhe Nicht verfügbar..
UV 0 von 12
Pollen 8.80 von 12
Luftqualität Nicht verfügbar..
Flu Activity Nicht verfügbar..
METAR KCAG 311153Z AUTO 00000KT 10SM CLR 15/09 A3021 RMK AO2 SLP161 60000 70004 T01500094 10172 20133 50001
Druck 30.01 inch
Sichtweite 10.0 Meilen
Wolken Heiter
Taupunkt 49 °F
Feuchtigkeit 69%
Regen 0.00 inch
Schneehöhe Nicht verfügbar..
UV 0 von 12
Pollen 8.80 von 12
Luftqualität Nicht verfügbar..
Flu Activity Nicht verfügbar..
METAR KCAG 311153Z AUTO 00000KT 10SM CLR 15/09 A3021 RMK AO2 SLP161 60000 70004 T01500094 10172 20133 50001

10-Day Weather Forecast

×

Almanac

Astronomie

Aug. 31, 2015 Aufgang Untergang
Genaue Zeit
Bürgerliche Dämmerung
Nautische Dämmerung
Astronomische Dämmerung
Mond
Länge des sichtbaren Lichts
Tageslänge
Tomorrow will be .
, % of the Moon is Illuminated

Heutige Rekorde

State Highs State Lows

Community

WunderPhotos

Upload Photos

1,851,226 Fotos hochgeladen!

WunderBlogs® & News

Nearby

Luftqualität

  Luftqualität LQ Index Schadstoff
Not available.

Schneehöhe

Station Depth Höhe

Erdbebenaktivität

Stadt Distance Mag. Time & Date
Minimum magnitude displayed is 2.5.

küstennahe Wassertemperaturen

Ort Temperatur

Stations

Wetterstationen in der Umgebung

Stationsstandort Temp. Windchill Taupunkt Feuchtigkeit Wind Precip. Höhe Aktualisiert Art